sensor_id;sensor_type;location;lat;lon;timestamp;temperature;humidity
25753;DHT22;13600;50.816;4.416;2022-12-18T00:00:58;-1.30;99.90
25753;DHT22;13600;50.816;4.416;2022-12-18T00:03:24;-1.00;99.90
25753;DHT22;13600;50.816;4.416;2022-12-18T00:05:50;-0.90;99.90
25753;DHT22;13600;50.816;4.416;2022-12-18T00:08:17;-1.00;99.90
25753;DHT22;13600;50.816;4.416;2022-12-18T00:10:42;-1.10;99.90
25753;DHT22;13600;50.816;4.416;2022-12-18T00:13:08;-1.40;99.90
25753;DHT22;13600;50.816;4.416;2022-12-18T00:15:34;-1.50;99.90
25753;DHT22;13600;50.816;4.416;2022-12-18T00:18:00;-1.50;99.90
25753;DHT22;13600;50.816;4.416;2022-12-18T00:20:26;-1.60;99.90
25753;DHT22;13600;50.816;4.416;2022-12-18T00:22:52;-1.50;99.90
25753;DHT22;13600;50.816;4.416;2022-12-18T00:25:17;-1.20;99.90
25753;DHT22;13600;50.816;4.416;2022-12-18T00:27:43;-1.20;99.90
25753;DHT22;13600;50.816;4.416;2022-12-18T00:30:09;-1.40;99.90
25753;DHT22;13600;50.816;4.416;2022-12-18T00:32:36;-1.40;99.90
25753;DHT22;13600;50.816;4.416;2022-12-18T00:35:02;-1.50;99.90
25753;DHT22;13600;50.816;4.416;2022-12-18T00:37:28;-1.20;99.90
25753;DHT22;13600;50.816;4.416;2022-12-18T00:39:54;-0.90;99.90
25753;DHT22;13600;50.816;4.416;2022-12-18T00:42:19;-0.80;99.90
25753;DHT22;13600;50.816;4.416;2022-12-18T00:45:03;-0.80;99.90
25753;DHT22;13600;50.816;4.416;2022-12-18T00:47:29;-1.10;99.90
25753;DHT22;13600;50.816;4.416;2022-12-18T00:49:54;-1.30;99.90
25753;DHT22;13600;50.816;4.416;2022-12-18T00:52:20;-1.40;99.90
25753;DHT22;13600;50.816;4.416;2022-12-18T00:54:45;-1.50;99.90
25753;DHT22;13600;50.816;4.416;2022-12-18T00:57:11;-1.60;99.90
25753;DHT22;13600;50.816;4.416;2022-12-18T00:59:36;-1.60;99.90
25753;DHT22;13600;50.816;4.416;2022-12-18T01:02:02;-1.50;99.90
25753;DHT22;13600;50.816;4.416;2022-12-18T01:04:27;-1.30;99.90
25753;DHT22;13600;50.816;4.416;2022-12-18T01:06:53;-1.20;99.90
25753;DHT22;13600;50.816;4.416;2022-12-18T01:09:19;-1.20;99.90
25753;DHT22;13600;50.816;4.416;2022-12-18T01:11:44;-1.30;99.90
25753;DHT22;13600;50.816;4.416;2022-12-18T01:14:10;-1.50;99.90
25753;DHT22;13600;50.816;4.416;2022-12-18T01:16:35;-1.40;99.90
25753;DHT22;13600;50.816;4.416;2022-12-18T01:19:01;-1.50;99.90
25753;DHT22;13600;50.816;4.416;2022-12-18T01:21:27;-1.60;99.90
25753;DHT22;13600;50.816;4.416;2022-12-18T01:23:55;-1.60;99.90
25753;DHT22;13600;50.816;4.416;2022-12-18T01:26:20;-1.60;99.90
25753;DHT22;13600;50.816;4.416;2022-12-18T01:28:46;-1.30;99.90
25753;DHT22;13600;50.816;4.416;2022-12-18T01:33:37;-0.80;99.90
25753;DHT22;13600;50.816;4.416;2022-12-18T01:36:03;-0.70;99.90
25753;DHT22;13600;50.816;4.416;2022-12-18T01:38:28;-0.60;99.90
25753;DHT22;13600;50.816;4.416;2022-12-18T01:40:58;-0.70;99.90
25753;DHT22;13600;50.816;4.416;2022-12-18T01:43:40;-0.80;99.90
25753;DHT22;13600;50.816;4.416;2022-12-18T01:46:06;-0.70;99.90
25753;DHT22;13600;50.816;4.416;2022-12-18T01:48:31;-0.60;99.90
25753;DHT22;13600;50.816;4.416;2022-12-18T01:50:57;-0.80;99.90
25753;DHT22;13600;50.816;4.416;2022-12-18T01:53:22;-0.80;99.90
25753;DHT22;13600;50.816;4.416;2022-12-18T01:55:53;-0.80;99.90
25753;DHT22;13600;50.816;4.416;2022-12-18T01:58:19;-0.60;99.90
25753;DHT22;13600;50.816;4.416;2022-12-18T02:00:45;-0.50;99.90
25753;DHT22;13600;50.816;4.416;2022-12-18T02:03:11;-0.60;99.90
25753;DHT22;13600;50.816;4.416;2022-12-18T02:05:43;-0.70;99.90
25753;DHT22;13600;50.816;4.416;2022-12-18T02:10:53;-0.70;99.90
25753;DHT22;13600;50.816;4.416;2022-12-18T02:13:27;-0.70;99.90
25753;DHT22;13600;50.816;4.416;2022-12-18T02:18:21;-0.60;99.90
25753;DHT22;13600;50.816;4.416;2022-12-18T02:20:49;-0.50;99.90
25753;DHT22;13600;50.816;4.416;2022-12-18T02:23:31;-0.50;99.90
25753;DHT22;13600;50.816;4.416;2022-12-18T02:26:09;-0.50;99.90
25753;DHT22;13600;50.816;4.416;2022-12-18T02:28:42;-0.60;99.90
25753;DHT22;13600;50.816;4.416;2022-12-18T02:31:10;-0.60;99.90
25753;DHT22;13600;50.816;4.416;2022-12-18T02:33:36;-0.70;99.90
25753;DHT22;13600;50.816;4.416;2022-12-18T02:36:02;-0.70;99.90
25753;DHT22;13600;50.816;4.416;2022-12-18T02:38:28;-0.80;99.90
25753;DHT22;13600;50.816;4.416;2022-12-18T02:40:54;-0.70;99.90
25753;DHT22;13600;50.816;4.416;2022-12-18T02:43:21;-0.80;99.90
25753;DHT22;13600;50.816;4.416;2022-12-18T02:45:56;-0.90;99.90
25753;DHT22;13600;50.816;4.416;2022-12-18T02:48:24;-0.90;99.90
25753;DHT22;13600;50.816;4.416;2022-12-18T02:53:52;-1.80;99.90
25753;DHT22;13600;50.816;4.416;2022-12-18T02:56:20;-1.60;99.90
25753;DHT22;13600;50.816;4.416;2022-12-18T03:01:23;-1.30;99.90
25753;DHT22;13600;50.816;4.416;2022-12-18T03:03:55;-1.20;99.90
25753;DHT22;13600;50.816;4.416;2022-12-18T03:08:49;-1.30;99.90
25753;DHT22;13600;50.816;4.416;2022-12-18T03:11:17;-1.30;99.90
25753;DHT22;13600;50.816;4.416;2022-12-18T03:14:02;-1.30;99.90
25753;DHT22;13600;50.816;4.416;2022-12-18T03:16:29;-1.30;99.90
25753;DHT22;13600;50.816;4.416;2022-12-18T03:18:59;-1.30;99.90
25753;DHT22;13600;50.816;4.416;2022-12-18T03:21:27;-1.60;99.90
25753;DHT22;13600;50.816;4.416;2022-12-18T03:23:54;-2.20;99.90
25753;DHT22;13600;50.816;4.416;2022-12-18T03:26:21;-2.40;99.90
25753;DHT22;13600;50.816;4.416;2022-12-18T03:28:50;-2.20;99.90
25753;DHT22;13600;50.816;4.416;2022-12-18T03:31:16;-2.30;99.90
25753;DHT22;13600;50.816;4.416;2022-12-18T03:33:47;-2.40;99.90
25753;DHT22;13600;50.816;4.416;2022-12-18T03:36:16;-2.30;99.90
25753;DHT22;13600;50.816;4.416;2022-12-18T03:38:42;-2.40;99.90
25753;DHT22;13600;50.816;4.416;2022-12-18T03:41:14;-2.30;99.90
25753;DHT22;13600;50.816;4.416;2022-12-18T03:49:14;-1.70;99.90
25753;DHT22;13600;50.816;4.416;2022-12-18T03:54:12;-1.30;99.90
25753;DHT22;13600;50.816;4.416;2022-12-18T03:56:40;-1.40;99.90
25753;DHT22;13600;50.816;4.416;2022-12-18T03:59:06;-1.40;99.90
25753;DHT22;13600;50.816;4.416;2022-12-18T04:01:40;-1.50;99.90
25753;DHT22;13600;50.816;4.416;2022-12-18T04:04:07;-1.70;99.90
25753;DHT22;13600;50.816;4.416;2022-12-18T04:06:33;-2.10;99.90
25753;DHT22;13600;50.816;4.416;2022-12-18T04:08:59;-1.90;99.90
25753;DHT22;13600;50.816;4.416;2022-12-18T04:11:25;-1.80;99.90
25753;DHT22;13600;50.816;4.416;2022-12-18T04:13:52;-1.90;99.90
25753;DHT22;13600;50.816;4.416;2022-12-18T04:16:20;-2.10;99.90
25753;DHT22;13600;50.816;4.416;2022-12-18T04:18:45;-2.30;99.90
25753;DHT22;13600;50.816;4.416;2022-12-18T04:21:11;-2.50;99.90
25753;DHT22;13600;50.816;4.416;2022-12-18T04:23:37;-2.80;99.90
25753;DHT22;13600;50.816;4.416;2022-12-18T04:26:02;-2.70;99.90
25753;DHT22;13600;50.816;4.416;2022-12-18T04:28:28;-2.70;99.90
25753;DHT22;13600;50.816;4.416;2022-12-18T04:30:53;-2.60;99.90
25753;DHT22;13600;50.816;4.416;2022-12-18T04:33:19;-2.50;99.90
25753;DHT22;13600;50.816;4.416;2022-12-18T04:35:45;-2.40;99.90
25753;DHT22;13600;50.816;4.416;2022-12-18T04:38:10;-2.40;99.90
25753;DHT22;13600;50.816;4.416;2022-12-18T04:40:37;-2.40;99.90
25753;DHT22;13600;50.816;4.416;2022-12-18T04:43:03;-2.10;99.90
25753;DHT22;13600;50.816;4.416;2022-12-18T04:45:29;-2.10;99.90
25753;DHT22;13600;50.816;4.416;2022-12-18T04:47:56;-1.90;99.90
25753;DHT22;13600;50.816;4.416;2022-12-18T04:50:22;-1.70;99.90
25753;DHT22;13600;50.816;4.416;2022-12-18T04:52:47;-1.70;99.90
25753;DHT22;13600;50.816;4.416;2022-12-18T04:55:13;-1.80;99.90
25753;DHT22;13600;50.816;4.416;2022-12-18T04:57:38;-1.80;99.90
25753;DHT22;13600;50.816;4.416;2022-12-18T05:00:04;-1.80;99.90
25753;DHT22;13600;50.816;4.416;2022-12-18T05:02:31;-1.90;99.90
25753;DHT22;13600;50.816;4.416;2022-12-18T05:04:57;-2.00;99.90
25753;DHT22;13600;50.816;4.416;2022-12-18T05:07:22;-2.30;99.90
25753;DHT22;13600;50.816;4.416;2022-12-18T05:09:48;-2.70;99.90
25753;DHT22;13600;50.816;4.416;2022-12-18T05:12:13;-2.80;99.90
25753;DHT22;13600;50.816;4.416;2022-12-18T05:14:39;-3.00;99.90
25753;DHT22;13600;50.816;4.416;2022-12-18T05:17:04;-3.10;99.90
25753;DHT22;13600;50.816;4.416;2022-12-18T05:19:30;-3.20;99.90
25753;DHT22;13600;50.816;4.416;2022-12-18T05:21:56;-3.20;99.90
25753;DHT22;13600;50.816;4.416;2022-12-18T05:24:22;-3.30;99.90
25753;DHT22;13600;50.816;4.416;2022-12-18T05:26:48;-2.90;99.90
25753;DHT22;13600;50.816;4.416;2022-12-18T05:29:13;-2.70;99.90
25753;DHT22;13600;50.816;4.416;2022-12-18T05:31:39;-2.60;99.90
25753;DHT22;13600;50.816;4.416;2022-12-18T05:34:05;-2.50;99.90
25753;DHT22;13600;50.816;4.416;2022-12-18T05:36:30;-2.20;99.90
25753;DHT22;13600;50.816;4.416;2022-12-18T05:38:56;-2.30;99.90
25753;DHT22;13600;50.816;4.416;2022-12-18T05:41:21;-2.50;99.90
25753;DHT22;13600;50.816;4.416;2022-12-18T05:43:47;-2.50;99.90
25753;DHT22;13600;50.816;4.416;2022-12-18T05:46:14;-2.50;99.90
25753;DHT22;13600;50.816;4.416;2022-12-18T05:48:41;-2.50;99.90
25753;DHT22;13600;50.816;4.416;2022-12-18T05:51:07;-2.60;99.90
25753;DHT22;13600;50.816;4.416;2022-12-18T05:53:33;-2.80;99.90
25753;DHT22;13600;50.816;4.416;2022-12-18T05:56:00;-2.80;99.90
25753;DHT22;13600;50.816;4.416;2022-12-18T05:58:26;-2.80;99.90
25753;DHT22;13600;50.816;4.416;2022-12-18T06:00:52;-2.90;99.90
25753;DHT22;13600;50.816;4.416;2022-12-18T06:03:17;-3.00;99.90
25753;DHT22;13600;50.816;4.416;2022-12-18T06:05:43;-3.00;99.90
25753;DHT22;13600;50.816;4.416;2022-12-18T06:08:10;-2.80;99.90
25753;DHT22;13600;50.816;4.416;2022-12-18T06:10:36;-2.70;99.90
25753;DHT22;13600;50.816;4.416;2022-12-18T06:13:02;-2.60;99.90
25753;DHT22;13600;50.816;4.416;2022-12-18T06:15:27;-2.60;99.90
25753;DHT22;13600;50.816;4.416;2022-12-18T06:17:54;-2.40;99.90
25753;DHT22;13600;50.816;4.416;2022-12-18T06:20:19;-2.30;99.90
25753;DHT22;13600;50.816;4.416;2022-12-18T06:22:45;-2.30;99.90
25753;DHT22;13600;50.816;4.416;2022-12-18T06:25:11;-2.40;99.90
25753;DHT22;13600;50.816;4.416;2022-12-18T06:27:37;-2.40;99.90
25753;DHT22;13600;50.816;4.416;2022-12-18T06:30:03;-2.10;99.90
25753;DHT22;13600;50.816;4.416;2022-12-18T06:32:29;-1.80;99.90
25753;DHT22;13600;50.816;4.416;2022-12-18T06:34:54;-1.70;99.90
25753;DHT22;13600;50.816;4.416;2022-12-18T06:37:21;-1.80;99.90
25753;DHT22;13600;50.816;4.416;2022-12-18T06:39:46;-1.70;99.90
25753;DHT22;13600;50.816;4.416;2022-12-18T06:42:12;-1.70;99.90
25753;DHT22;13600;50.816;4.416;2022-12-18T06:44:37;-1.90;99.90
25753;DHT22;13600;50.816;4.416;2022-12-18T06:47:03;-1.80;99.90
25753;DHT22;13600;50.816;4.416;2022-12-18T06:49:28;-1.60;99.90
25753;DHT22;13600;50.816;4.416;2022-12-18T06:51:54;-1.40;99.90
25753;DHT22;13600;50.816;4.416;2022-12-18T06:54:19;-1.40;99.90
25753;DHT22;13600;50.816;4.416;2022-12-18T06:56:45;-1.40;99.90
25753;DHT22;13600;50.816;4.416;2022-12-18T06:59:12;-1.50;99.90
25753;DHT22;13600;50.816;4.416;2022-12-18T07:01:37;-1.70;99.90
25753;DHT22;13600;50.816;4.416;2022-12-18T07:04:02;-1.70;99.90
25753;DHT22;13600;50.816;4.416;2022-12-18T07:06:28;-1.60;99.90
25753;DHT22;13600;50.816;4.416;2022-12-18T07:08:54;-1.50;99.90
25753;DHT22;13600;50.816;4.416;2022-12-18T07:11:19;-1.50;99.90
25753;DHT22;13600;50.816;4.416;2022-12-18T07:13:45;-1.60;99.90
25753;DHT22;13600;50.816;4.416;2022-12-18T07:16:12;-1.50;99.90
25753;DHT22;13600;50.816;4.416;2022-12-18T07:18:38;-1.80;99.90
25753;DHT22;13600;50.816;4.416;2022-12-18T07:21:08;-1.90;99.90
25753;DHT22;13600;50.816;4.416;2022-12-18T07:23:34;-1.60;99.90
25753;DHT22;13600;50.816;4.416;2022-12-18T07:26:03;-1.50;99.90
25753;DHT22;13600;50.816;4.416;2022-12-18T07:28:29;-1.30;99.90
25753;DHT22;13600;50.816;4.416;2022-12-18T07:30:55;-1.20;99.90
25753;DHT22;13600;50.816;4.416;2022-12-18T07:33:21;-1.10;99.90
25753;DHT22;13600;50.816;4.416;2022-12-18T07:35:46;-1.10;99.90
25753;DHT22;13600;50.816;4.416;2022-12-18T07:38:12;-1.20;99.90
25753;DHT22;13600;50.816;4.416;2022-12-18T07:40:37;-1.20;99.90
25753;DHT22;13600;50.816;4.416;2022-12-18T07:43:03;-1.20;99.90
25753;DHT22;13600;50.816;4.416;2022-12-18T07:45:29;-1.40;99.90
25753;DHT22;13600;50.816;4.416;2022-12-18T07:47:54;-1.30;99.90
25753;DHT22;13600;50.816;4.416;2022-12-18T07:50:20;-1.20;99.90
25753;DHT22;13600;50.816;4.416;2022-12-18T07:52:45;-1.30;99.90
25753;DHT22;13600;50.816;4.416;2022-12-18T07:55:11;-1.40;99.90
25753;DHT22;13600;50.816;4.416;2022-12-18T07:57:37;-1.40;99.90
25753;DHT22;13600;50.816;4.416;2022-12-18T08:00:03;-1.30;99.90
25753;DHT22;13600;50.816;4.416;2022-12-18T08:02:30;-1.30;99.90
25753;DHT22;13600;50.816;4.416;2022-12-18T08:04:56;-1.30;99.90
25753;DHT22;13600;50.816;4.416;2022-12-18T08:07:22;-1.40;99.90
25753;DHT22;13600;50.816;4.416;2022-12-18T08:09:47;-1.40;99.90
25753;DHT22;13600;50.816;4.416;2022-12-18T08:12:13;-1.30;99.90
25753;DHT22;13600;50.816;4.416;2022-12-18T08:14:38;-1.30;99.90
25753;DHT22;13600;50.816;4.416;2022-12-18T08:17:04;-1.20;99.90
25753;DHT22;13600;50.816;4.416;2022-12-18T08:19:30;-1.20;99.90
25753;DHT22;13600;50.816;4.416;2022-12-18T08:21:55;-1.20;99.90
25753;DHT22;13600;50.816;4.416;2022-12-18T08:24:21;-1.20;99.90
25753;DHT22;13600;50.816;4.416;2022-12-18T08:26:47;-1.40;99.90
25753;DHT22;13600;50.816;4.416;2022-12-18T08:29:12;-1.50;99.90
25753;DHT22;13600;50.816;4.416;2022-12-18T08:31:38;-1.50;99.90
25753;DHT22;13600;50.816;4.416;2022-12-18T08:34:04;-1.40;99.90
25753;DHT22;13600;50.816;4.416;2022-12-18T08:36:29;-1.30;99.90
25753;DHT22;13600;50.816;4.416;2022-12-18T08:38:56;-1.30;99.90
25753;DHT22;13600;50.816;4.416;2022-12-18T08:41:21;-1.30;99.90
25753;DHT22;13600;50.816;4.416;2022-12-18T08:43:47;-1.30;99.90
25753;DHT22;13600;50.816;4.416;2022-12-18T08:46:38;-1.20;99.90
25753;DHT22;13600;50.816;4.416;2022-12-18T08:49:04;-1.10;99.90
25753;DHT22;13600;50.816;4.416;2022-12-18T08:51:30;-1.10;99.90
25753;DHT22;13600;50.816;4.416;2022-12-18T08:53:55;-1.00;99.90
25753;DHT22;13600;50.816;4.416;2022-12-18T08:56:21;-1.00;99.90
25753;DHT22;13600;50.816;4.416;2022-12-18T08:58:47;-0.80;99.90
25753;DHT22;13600;50.816;4.416;2022-12-18T09:01:12;-0.70;99.90
25753;DHT22;13600;50.816;4.416;2022-12-18T09:03:38;-0.60;99.90
25753;DHT22;13600;50.816;4.416;2022-12-18T09:06:04;-0.50;99.90
25753;DHT22;13600;50.816;4.416;2022-12-18T09:08:30;-0.20;99.90
25753;DHT22;13600;50.816;4.416;2022-12-18T09:10:56;-0.10;99.90
25753;DHT22;13600;50.816;4.416;2022-12-18T09:13:21;0.00;99.90
25753;DHT22;13600;50.816;4.416;2022-12-18T09:15:50;0.10;99.90
25753;DHT22;13600;50.816;4.416;2022-12-18T09:18:16;0.20;99.90
25753;DHT22;13600;50.816;4.416;2022-12-18T09:20:42;0.20;99.90
25753;DHT22;13600;50.816;4.416;2022-12-18T09:23:07;0.20;99.90
25753;DHT22;13600;50.816;4.416;2022-12-18T09:25:34;0.20;99.90
25753;DHT22;13600;50.816;4.416;2022-12-18T09:28:01;0.30;99.90
25753;DHT22;13600;50.816;4.416;2022-12-18T09:30:27;0.40;99.90
25753;DHT22;13600;50.816;4.416;2022-12-18T09:32:53;0.50;99.90
25753;DHT22;13600;50.816;4.416;2022-12-18T09:35:19;0.50;99.90
25753;DHT22;13600;50.816;4.416;2022-12-18T09:37:44;0.60;99.90
25753;DHT22;13600;50.816;4.416;2022-12-18T09:40:16;0.50;99.90
25753;DHT22;13600;50.816;4.416;2022-12-18T09:42:44;0.60;99.90
25753;DHT22;13600;50.816;4.416;2022-12-18T09:45:12;0.80;99.90
25753;DHT22;13600;50.816;4.416;2022-12-18T09:47:38;0.80;99.90
25753;DHT22;13600;50.816;4.416;2022-12-18T09:50:06;1.10;99.90
25753;DHT22;13600;50.816;4.416;2022-12-18T09:52:43;1.00;99.90
25753;DHT22;13600;50.816;4.416;2022-12-18T09:57:36;1.10;99.90
25753;DHT22;13600;50.816;4.416;2022-12-18T10:00:25;1.10;99.90
25753;DHT22;13600;50.816;4.416;2022-12-18T10:02:53;1.20;99.90
25753;DHT22;13600;50.816;4.416;2022-12-18T10:08:17;1.10;99.90
25753;DHT22;13600;50.816;4.416;2022-12-18T10:10:48;1.20;99.90
25753;DHT22;13600;50.816;4.416;2022-12-18T10:13:23;1.40;99.90
25753;DHT22;13600;50.816;4.416;2022-12-18T10:18:28;1.60;99.90
25753;DHT22;13600;50.816;4.416;2022-12-18T10:21:00;1.60;99.90
25753;DHT22;13600;50.816;4.416;2022-12-18T10:26:04;1.70;99.90
25753;DHT22;13600;50.816;4.416;2022-12-18T10:28:31;1.60;99.90
25753;DHT22;13600;50.816;4.416;2022-12-18T10:30:57;1.60;99.90
25753;DHT22;13600;50.816;4.416;2022-12-18T10:33:24;1.70;99.90
25753;DHT22;13600;50.816;4.416;2022-12-18T10:35:50;1.60;99.90
25753;DHT22;13600;50.816;4.416;2022-12-18T10:40:53;1.80;99.90
25753;DHT22;13600;50.816;4.416;2022-12-18T10:43:20;1.90;99.90
25753;DHT22;13600;50.816;4.416;2022-12-18T10:46:31;2.00;99.90
25753;DHT22;13600;50.816;4.416;2022-12-18T10:48:33;2.00;99.90
25753;DHT22;13600;50.816;4.416;2022-12-18T10:50:59;1.90;99.90
25753;DHT22;13600;50.816;4.416;2022-12-18T10:53:27;1.90;99.90
25753;DHT22;13600;50.816;4.416;2022-12-18T10:55:53;2.00;99.90
25753;DHT22;13600;50.816;4.416;2022-12-18T10:58:27;2.00;99.90
25753;DHT22;13600;50.816;4.416;2022-12-18T11:03:32;2.30;99.90
25753;DHT22;13600;50.816;4.416;2022-12-18T11:06:01;2.40;99.90
25753;DHT22;13600;50.816;4.416;2022-12-18T11:08:27;2.60;99.90
25753;DHT22;13600;50.816;4.416;2022-12-18T11:10:53;2.60;99.90
25753;DHT22;13600;50.816;4.416;2022-12-18T11:13:20;2.60;99.90
25753;DHT22;13600;50.816;4.416;2022-12-18T11:15:45;2.60;99.90
25753;DHT22;13600;50.816;4.416;2022-12-18T11:18:19;2.70;99.90
25753;DHT22;13600;50.816;4.416;2022-12-18T11:20:52;2.70;99.90
25753;DHT22;13600;50.816;4.416;2022-12-18T11:23:19;2.80;99.90
25753;DHT22;13600;50.816;4.416;2022-12-18T11:25:51;2.80;99.90
25753;DHT22;13600;50.816;4.416;2022-12-18T11:28:34;3.00;99.90
25753;DHT22;13600;50.816;4.416;2022-12-18T11:31:12;3.00;99.90
25753;DHT22;13600;50.816;4.416;2022-12-18T11:33:42;3.10;99.90
25753;DHT22;13600;50.816;4.416;2022-12-18T11:36:09;3.10;99.90
25753;DHT22;13600;50.816;4.416;2022-12-18T11:38:36;2.90;99.90
25753;DHT22;13600;50.816;4.416;2022-12-18T11:43:29;2.80;99.90
25753;DHT22;13600;50.816;4.416;2022-12-18T11:46:04;3.00;99.90
25753;DHT22;13600;50.816;4.416;2022-12-18T11:48:36;3.00;99.90
25753;DHT22;13600;50.816;4.416;2022-12-18T11:51:04;3.10;99.90
25753;DHT22;13600;50.816;4.416;2022-12-18T11:53:30;3.10;99.90
25753;DHT22;13600;50.816;4.416;2022-12-18T11:56:00;3.10;99.90
25753;DHT22;13600;50.816;4.416;2022-12-18T12:14:24;3.20;99.90
25753;DHT22;13600;50.816;4.416;2022-12-18T12:16:57;3.20;99.90
25753;DHT22;13600;50.816;4.416;2022-12-18T12:19:31;3.20;99.90
25753;DHT22;13600;50.816;4.416;2022-12-18T12:27:16;3.50;99.90
25753;DHT22;13600;50.816;4.416;2022-12-18T12:34:58;3.40;99.90
25753;DHT22;13600;50.816;4.416;2022-12-18T12:40:00;3.30;99.90
25753;DHT22;13600;50.816;4.416;2022-12-18T12:42:35;3.20;99.90
25753;DHT22;13600;50.816;4.416;2022-12-18T12:45:23;3.10;99.90
25753;DHT22;13600;50.816;4.416;2022-12-18T12:47:51;3.30;99.90
25753;DHT22;13600;50.816;4.416;2022-12-18T12:50:18;3.30;99.90
25753;DHT22;13600;50.816;4.416;2022-12-18T12:52:46;3.30;99.90
25753;DHT22;13600;50.816;4.416;2022-12-18T12:55:14;3.30;99.90
25753;DHT22;13600;50.816;4.416;2022-12-18T12:57:42;3.30;99.90
25753;DHT22;13600;50.816;4.416;2022-12-18T13:00:09;3.40;99.90
25753;DHT22;13600;50.816;4.416;2022-12-18T13:02:39;3.40;99.90
25753;DHT22;13600;50.816;4.416;2022-12-18T13:05:22;3.40;99.90
25753;DHT22;13600;50.816;4.416;2022-12-18T13:08:00;3.40;99.90
25753;DHT22;13600;50.816;4.416;2022-12-18T13:13:00;3.40;99.90
25753;DHT22;13600;50.816;4.416;2022-12-18T13:23:23;3.30;99.90
25753;DHT22;13600;50.816;4.416;2022-12-18T13:25:51;3.20;99.90
25753;DHT22;13600;50.816;4.416;2022-12-18T13:30:54;2.80;99.90
25753;DHT22;13600;50.816;4.416;2022-12-18T13:35:52;2.60;99.90
25753;DHT22;13600;50.816;4.416;2022-12-18T13:38:22;2.60;99.90
25753;DHT22;13600;50.816;4.416;2022-12-18T13:43:35;2.70;99.90
25753;DHT22;13600;50.816;4.416;2022-12-18T13:51:36;3.00;99.90
25753;DHT22;13600;50.816;4.416;2022-12-18T13:56:45;2.90;99.90
25753;DHT22;13600;50.816;4.416;2022-12-18T13:59:15;2.90;99.90
25753;DHT22;13600;50.816;4.416;2022-12-18T14:01:42;2.90;99.90
25753;DHT22;13600;50.816;4.416;2022-12-18T14:04:09;2.80;99.90
25753;DHT22;13600;50.816;4.416;2022-12-18T14:06:34;2.70;99.90
25753;DHT22;13600;50.816;4.416;2022-12-18T14:09:00;2.70;99.90
25753;DHT22;13600;50.816;4.416;2022-12-18T14:11:28;2.90;99.90
25753;DHT22;13600;50.816;4.416;2022-12-18T14:13:56;2.90;99.90
25753;DHT22;13600;50.816;4.416;2022-12-18T14:16:23;2.80;99.90
25753;DHT22;13600;50.816;4.416;2022-12-18T14:21:17;2.70;99.90
25753;DHT22;13600;50.816;4.416;2022-12-18T14:23:43;2.70;99.90
25753;DHT22;13600;50.816;4.416;2022-12-18T14:26:19;2.60;99.90
25753;DHT22;13600;50.816;4.416;2022-12-18T14:28:46;2.60;99.90
25753;DHT22;13600;50.816;4.416;2022-12-18T14:31:18;2.60;99.90
25753;DHT22;13600;50.816;4.416;2022-12-18T14:33:44;2.70;99.90
25753;DHT22;13600;50.816;4.416;2022-12-18T14:36:17;2.70;99.90
25753;DHT22;13600;50.816;4.416;2022-12-18T14:38:43;2.70;99.90
25753;DHT22;13600;50.816;4.416;2022-12-18T14:43:35;2.70;99.90
25753;DHT22;13600;50.816;4.416;2022-12-18T14:46:01;2.80;99.90
25753;DHT22;13600;50.816;4.416;2022-12-18T14:48:37;2.80;99.90
25753;DHT22;13600;50.816;4.416;2022-12-18T14:51:14;2.80;99.90
25753;DHT22;13600;50.816;4.416;2022-12-18T14:56:54;2.90;99.90
25753;DHT22;13600;50.816;4.416;2022-12-18T14:59:00;2.80;99.90
25753;DHT22;13600;50.816;4.416;2022-12-18T15:01:36;2.80;99.90
25753;DHT22;13600;50.816;4.416;2022-12-18T15:04:03;2.80;99.90
25753;DHT22;13600;50.816;4.416;2022-12-18T15:06:30;3.00;99.90
25753;DHT22;13600;50.816;4.416;2022-12-18T15:08:57;2.90;99.90
25753;DHT22;13600;50.816;4.416;2022-12-18T15:11:24;3.00;99.90
25753;DHT22;13600;50.816;4.416;2022-12-18T15:13:50;3.00;99.90
25753;DHT22;13600;50.816;4.416;2022-12-18T15:16:15;3.10;99.90
25753;DHT22;13600;50.816;4.416;2022-12-18T15:18:42;3.10;99.90
25753;DHT22;13600;50.816;4.416;2022-12-18T15:21:11;2.90;99.90
25753;DHT22;13600;50.816;4.416;2022-12-18T15:26:09;2.90;99.90
25753;DHT22;13600;50.816;4.416;2022-12-18T15:28:39;2.70;99.90
25753;DHT22;13600;50.816;4.416;2022-12-18T15:33:37;2.50;99.90
25753;DHT22;13600;50.816;4.416;2022-12-18T15:36:04;2.60;99.90
25753;DHT22;13600;50.816;4.416;2022-12-18T15:38:30;2.60;99.90
25753;DHT22;13600;50.816;4.416;2022-12-18T15:40:56;2.70;99.90
25753;DHT22;13600;50.816;4.416;2022-12-18T15:43:22;2.70;99.90
25753;DHT22;13600;50.816;4.416;2022-12-18T15:46:01;2.80;99.90
25753;DHT22;13600;50.816;4.416;2022-12-18T15:48:26;2.80;99.90
25753;DHT22;13600;50.816;4.416;2022-12-18T15:50:52;2.80;99.90
25753;DHT22;13600;50.816;4.416;2022-12-18T15:53:19;2.90;99.90
25753;DHT22;13600;50.816;4.416;2022-12-18T15:55:44;2.80;99.90
25753;DHT22;13600;50.816;4.416;2022-12-18T15:58:29;2.90;99.90
25753;DHT22;13600;50.816;4.416;2022-12-18T16:00:55;3.00;99.90
25753;DHT22;13600;50.816;4.416;2022-12-18T16:03:23;2.90;99.90
25753;DHT22;13600;50.816;4.416;2022-12-18T16:05:49;2.90;99.90
25753;DHT22;13600;50.816;4.416;2022-12-18T16:08:15;2.90;99.90
25753;DHT22;13600;50.816;4.416;2022-12-18T16:10:41;2.90;99.90
25753;DHT22;13600;50.816;4.416;2022-12-18T16:13:10;2.70;99.90
25753;DHT22;13600;50.816;4.416;2022-12-18T16:15:35;2.70;99.90
25753;DHT22;13600;50.816;4.416;2022-12-18T16:18:01;2.60;99.90
25753;DHT22;13600;50.816;4.416;2022-12-18T16:20:26;2.60;99.90
25753;DHT22;13600;50.816;4.416;2022-12-18T16:22:52;2.60;99.90
25753;DHT22;13600;50.816;4.416;2022-12-18T16:25:27;2.70;99.90
25753;DHT22;13600;50.816;4.416;2022-12-18T16:27:54;2.80;99.90
25753;DHT22;13600;50.816;4.416;2022-12-18T16:30:21;2.70;99.90
25753;DHT22;13600;50.816;4.416;2022-12-18T16:32:47;2.70;99.90
25753;DHT22;13600;50.816;4.416;2022-12-18T16:35:13;2.80;99.90
25753;DHT22;13600;50.816;4.416;2022-12-18T16:37:40;2.80;99.90
25753;DHT22;13600;50.816;4.416;2022-12-18T16:40:06;2.90;99.90
25753;DHT22;13600;50.816;4.416;2022-12-18T16:42:34;2.90;99.90
25753;DHT22;13600;50.816;4.416;2022-12-18T16:45:00;2.90;99.90
25753;DHT22;13600;50.816;4.416;2022-12-18T16:47:25;2.90;99.90
25753;DHT22;13600;50.816;4.416;2022-12-18T16:49:51;2.80;99.90
25753;DHT22;13600;50.816;4.416;2022-12-18T16:52:17;2.70;99.90
25753;DHT22;13600;50.816;4.416;2022-12-18T16:54:43;2.80;99.90
25753;DHT22;13600;50.816;4.416;2022-12-18T16:57:09;2.80;99.90
25753;DHT22;13600;50.816;4.416;2022-12-18T16:59:37;2.90;99.90
25753;DHT22;13600;50.816;4.416;2022-12-18T17:02:02;3.00;99.90
25753;DHT22;13600;50.816;4.416;2022-12-18T17:04:30;2.90;99.90
25753;DHT22;13600;50.816;4.416;2022-12-18T17:06:56;2.90;99.90
25753;DHT22;13600;50.816;4.416;2022-12-18T17:09:22;2.90;99.90
25753;DHT22;13600;50.816;4.416;2022-12-18T17:11:50;3.00;99.90
25753;DHT22;13600;50.816;4.416;2022-12-18T17:14:17;3.20;99.90
25753;DHT22;13600;50.816;4.416;2022-12-18T17:16:43;3.20;99.90
25753;DHT22;13600;50.816;4.416;2022-12-18T17:19:09;3.20;99.90
25753;DHT22;13600;50.816;4.416;2022-12-18T17:21:35;3.20;99.90
25753;DHT22;13600;50.816;4.416;2022-12-18T17:24:00;3.10;99.90
25753;DHT22;13600;50.816;4.416;2022-12-18T17:26:26;3.20;99.90
25753;DHT22;13600;50.816;4.416;2022-12-18T17:28:52;3.20;99.90